Time;durP1;ratioP1;P1;durP2;ratioP2;P2;SDS_P1;SDS_P2;PMS_P1;PMS_P2;Temp;Humidity;BMP_temperature;BMP_pressure;BME280_temperature;BME280_humidity;BME280_pressure;Samples;Min_cycle;Max_cycle;Signal;HPM_P1;HPM_P2
2022/09/24 08:14:24;;;;;;;12.55;3.45;;;14.80;99.90;;;;;;5104579;27;2009350;-84
2022/09/24 08:16:50;;;;;;;11.05;2.35;;;14.40;99.90;;;;;;5126965;27;20043;-82
2022/09/24 08:19:15;;;;;;;12.18;2.25;;;14.30;99.90;;;;;;5125623;27;20472;-83
2022/09/24 08:21:41;;;;;;;9.55;1.60;;;14.20;99.90;;;;;;5115584;27;20506;-83
2022/09/24 08:24:08;;;;;;;10.13;1.67;;;14.20;99.90;;;;;;5129655;27;20051;-82
2022/09/24 08:26:33;;;;;;;5.03;1.40;;;14.40;99.90;;;;;;5127408;27;20126;-84
2022/09/24 08:28:59;;;;;;;4.93;1.15;;;14.50;99.90;;;;;;5116999;27;20129;-85
2022/09/24 08:31:25;;;;;;;10.85;2.03;;;14.70;99.90;;;;;;5086049;27;20046;-83
2022/09/24 08:33:50;;;;;;;10.45;1.63;;;14.80;99.90;;;;;;5116172;27;20035;-83
2022/09/24 08:36:17;;;;;;;10.38;2.45;;;14.80;99.90;;;;;;5109009;27;20123;-83
2022/09/24 08:38:43;;;;;;;5.82;1.52;;;14.90;99.90;;;;;;5138232;27;20050;-83
2022/09/24 08:41:25;;;;;;;10.80;1.52;;;14.90;99.90;;;;;;5143326;27;20042;-83
2022/09/24 08:44:00;;;;;;;7.38;1.70;;;15.10;99.90;;;;;;5144611;27;20061;-83
2022/09/24 08:49:29;;;;;;;15.63;1.67;;;15.20;99.90;;;;;;5135756;27;20054;-83
2022/09/24 08:52:19;;;;;;;12.38;2.00;;;15.20;99.90;;;;;;5131427;27;20138;-84
2022/09/24 08:54:48;;;;;;;6.70;1.30;;;15.20;99.90;;;;;;5141509;27;20043;-83
2022/09/24 08:57:19;;;;;;;7.93;1.85;;;15.10;99.90;;;;;;5123476;27;20050;-83
2022/09/24 08:59:50;;;;;;;9.13;1.63;;;15.10;99.90;;;;;;5113848;27;20058;-83
2022/09/24 09:02:45;;;;;;;10.15;2.00;;;15.20;99.90;;;;;;5121925;27;20049;-82
2022/09/24 09:05:51;;;;;;;10.43;1.60;;;15.20;99.90;;;;;;5126916;27;20066;-82
2022/09/24 09:08:33;;;;;;;10.07;1.73;;;15.30;99.90;;;;;;5126165;27;20046;-80
2022/09/24 09:11:02;;;;;;;9.90;1.60;;;15.30;99.90;;;;;;5140459;27;20050;-79
2022/09/24 09:13:57;;;;;;;11.38;1.98;;;15.20;99.90;;;;;;5137647;27;20571;-79
2022/09/24 09:16:30;;;;;;;8.88;1.60;;;15.20;99.90;;;;;;5135229;27;20042;-79
2022/09/24 09:19:03;;;;;;;9.57;1.63;;;15.20;99.90;;;;;;5115244;27;20088;-79
2022/09/24 09:21:39;;;;;;;11.27;1.67;;;15.30;99.90;;;;;;5138631;27;20395;-79
2022/09/24 09:24:08;;;;;;;;;;;15.30;99.90;;;;;;5127617;27;20046;-80
2022/09/24 09:26:34;;;;;;;12.68;2.10;;;15.40;99.90;;;;;;5123395;27;19923;-82
2022/09/24 09:29:00;;;;;;;8.07;1.70;;;15.40;99.90;;;;;;5083695;27;20061;-80
2022/09/24 09:31:29;;;;;;;10.38;1.88;;;15.40;99.90;;;;;;5081077;27;20087;-82
2022/09/24 09:34:01;;;;;;;11.10;1.92;;;15.30;99.90;;;;;;5113444;27;20053;-81
2022/09/24 09:36:54;;;;;;;9.05;1.92;;;15.30;99.90;;;;;;5111366;27;20055;-82
2022/09/24 09:39:36;;;;;;;11.48;1.88;;;15.40;99.90;;;;;;5117858;27;20535;-82
2022/09/24 09:42:21;;;;;;;11.60;1.67;;;15.40;99.90;;;;;;5114993;27;20562;-84
2022/09/24 09:44:47;;;;;;;13.50;2.23;;;15.30;99.90;;;;;;5111969;27;20095;-83
2022/09/24 09:47:16;;;;;;;14.35;1.80;;;15.20;99.90;;;;;;5114298;27;20043;-82
2022/09/24 09:49:44;;;;;;;12.40;2.03;;;15.20;99.90;;;;;;5122753;27;20145;-83
2022/09/24 09:52:23;;;;;;;10.02;1.90;;;15.10;99.90;;;;;;5124140;27;20051;-82
2022/09/24 09:54:49;;;;;;;15.30;2.10;;;15.00;99.90;;;;;;5110387;27;20491;-82
2022/09/24 09:57:20;;;;;;;13.77;1.80;;;14.90;99.90;;;;;;5119900;27;20087;-82
2022/09/24 09:59:52;;;;;;;10.88;1.67;;;14.80;99.90;;;;;;5132974;27;20099;-82
2022/09/24 10:02:26;;;;;;;8.45;1.67;;;14.70;99.90;;;;;;5116861;27;20817;-83
2022/09/24 10:04:56;;;;;;;6.72;1.30;;;14.70;99.90;;;;;;5114827;27;20054;-83
2022/09/24 10:07:24;;;;;;;13.15;1.23;;;14.70;99.90;;;;;;5112758;27;20116;-83
2022/09/24 10:10:11;;;;;;;8.05;1.25;;;14.60;99.90;;;;;;5122691;27;20054;-82
2022/09/24 10:12:44;;;;;;;9.50;1.45;;;14.60;99.90;;;;;;5103236;27;20055;-86
2022/09/24 10:15:16;;;;;;;14.88;3.05;;;14.60;99.90;;;;;;5095736;27;20063;-82
2022/09/24 10:17:48;;;;;;;12.48;2.17;;;14.50;99.90;;;;;;5125663;27;20050;-82
2022/09/24 10:20:20;;;;;;;10.73;1.90;;;14.40;99.90;;;;;;5128939;27;20047;-82
2022/09/24 10:22:54;;;;;;;12.32;1.90;;;14.30;99.90;;;;;;5117135;27;20077;-83
2022/09/24 10:25:26;;;;;;;7.63;1.83;;;14.20;99.90;;;;;;5113651;27;20510;-82
2022/09/24 10:31:03;;;;;;;10.93;2.30;;;14.00;99.90;;;;;;5133338;27;20183;-84
2022/09/24 10:33:43;;;;;;;8.50;1.40;;;14.10;99.90;;;;;;5109660;27;20047;-81
2022/09/24 10:36:22;;;;;;;15.50;2.75;;;14.10;99.90;;;;;;5127378;27;20488;-82
2022/09/24 10:38:59;;;;;;;9.95;1.50;;;14.10;99.90;;;;;;5133718;27;20050;-82
2022/09/24 10:41:28;;;;;;;8.35;1.67;;;14.10;99.90;;;;;;5117684;27;20053;-81
2022/09/24 10:43:56;;;;;;;6.85;2.47;;;14.20;99.90;;;;;;5115979;27;20042;-81
2022/09/24 10:46:27;;;;;;;10.23;2.15;;;14.20;99.90;;;;;;5131606;27;20042;-83
2022/09/24 10:49:12;;;;;;;7.28;1.15;;;14.20;99.90;;;;;;5098932;27;20047;-83
2022/09/24 10:51:59;;;;;;;9.43;1.33;;;14.20;99.90;;;;;;5106310;27;20110;-82
2022/09/24 10:54:49;;;;;;;8.95;3.13;;;14.30;99.90;;;;;;5114629;27;20051;-82
2022/09/24 10:57:30;;;;;;;8.07;1.90;;;14.40;99.90;;;;;;5123555;27;20387;-83
2022/09/24 11:00:19;;;;;;;8.00;1.80;;;14.40;99.90;;;;;;5096385;27;20043;-83
2022/09/24 11:03:28;;;;;;;6.30;1.80;;;14.40;99.90;;;;;;5107467;27;20472;-85
2022/09/24 11:06:33;;;;;;;7.65;1.40;;;14.40;99.90;;;;;;5106490;27;20078;-83
2022/09/24 11:09:19;;;;;;;9.07;1.73;;;14.30;99.90;;;;;;5101502;27;20046;-83
2022/09/24 11:12:00;;;;;;;7.35;1.38;;;14.30;99.90;;;;;;5128197;27;20043;-82
2022/09/24 11:15:03;;;;;;;9.63;2.80;;;14.20;99.90;;;;;;5119076;27;20057;-85
2022/09/24 11:17:58;;;;;;;8.00;2.10;;;14.20;99.90;;;;;;5106014;27;20050;-83
2022/09/24 11:20:34;;;;;;;7.90;1.80;;;14.20;99.90;;;;;;5070930;27;20074;-83
2022/09/24 11:23:00;;;;;;;;;;;14.20;99.90;;;;;;5111401;27;20198;-83
2022/09/24 11:25:56;;;;;;;5.87;1.77;;;14.20;99.90;;;;;;5101653;27;21666;-84
2022/09/24 11:28:34;;;;;;;7.82;1.65;;;14.30;99.90;;;;;;5113029;27;20054;-83
2022/09/24 11:31:05;;;;;;;6.75;1.50;;;14.30;99.90;;;;;;5111362;27;20395;-83
2022/09/24 11:34:03;;;;;;;8.05;1.42;;;14.20;99.90;;;;;;5114968;27;21850;-85
2022/09/24 11:36:31;;;;;;;5.93;1.70;;;14.20;99.90;;;;;;5120120;27;20043;-81
2022/09/24 11:39:15;;;;;;;5.32;1.38;;;14.10;99.90;;;;;;5106340;27;20138;-84
2022/09/24 11:42:09;;;;;;;6.53;1.50;;;14.20;99.90;;;;;;5127525;27;20034;-82
2022/09/24 11:45:15;;;;;;;5.90;1.45;;;14.20;99.90;;;;;;5132813;27;20062;-89
2022/09/24 11:47:53;;;;;;;6.80;1.48;;;14.30;99.90;;;;;;5146932;27;20062;-83
2022/09/24 11:50:45;;;;;;;15.60;1.65;;;14.30;99.90;;;;;;5102300;27;20044;-83
2022/09/24 11:53:11;;;;;;;16.08;5.18;;;14.40;99.90;;;;;;5132265;27;20053;-83
2022/09/24 11:55:41;;;;;;;19.67;6.82;;;14.50;99.90;;;;;;5108978;27;20408;-84
2022/09/24 11:58:45;;;;;;;19.13;7.72;;;14.60;99.90;;;;;;5126373;27;20039;-83
2022/09/24 12:01:28;;;;;;;12.32;5.43;;;14.80;99.90;;;;;;5126135;27;20042;-83
2022/09/24 12:04:15;;;;;;;7.82;2.42;;;14.80;99.90;;;;;;5132679;27;20035;-83
2022/09/24 12:06:51;;;;;;;8.18;2.00;;;14.90;99.90;;;;;;5100928;27;20039;-83
2022/09/24 12:09:33;;;;;;;5.78;1.30;;;14.90;99.90;;;;;;5115347;27;20372;-83
2022/09/24 12:12:14;;;;;;;8.75;1.42;;;14.80;99.90;;;;;;5114404;27;20054;-84
2022/09/24 12:15:13;;;;;;;7.28;1.35;;;14.70;99.90;;;;;;5110427;27;20062;-83
2022/09/24 12:17:52;;;;;;;12.27;2.35;;;14.60;99.90;;;;;;5122817;28;20065;-84
2022/09/24 12:20:28;;;;;;;7.15;1.98;;;14.50;99.90;;;;;;5115135;27;20047;-83
2022/09/24 12:23:01;;;;;;;7.32;1.80;;;14.30;99.90;;;;;;5119428;27;20078;-84
2022/09/24 12:25:39;;;;;;;7.28;1.95;;;14.20;99.90;;;;;;5125170;28;20051;-83
2022/09/24 12:28:11;;;;;;;9.80;2.33;;;14.10;99.90;;;;;;5118981;27;20130;-83
2022/09/24 12:33:41;;;;;;;12.48;2.33;;;14.10;99.90;;;;;;5112736;28;20823;-83
2022/09/24 12:36:24;;;;;;;11.70;2.83;;;14.10;99.90;;;;;;5127434;27;20039;-84
2022/09/24 12:38:59;;;;;;;8.52;1.75;;;14.10;99.90;;;;;;5120671;27;20047;-84
2022/09/24 12:41:32;;;;;;;13.13;1.90;;;14.10;99.90;;;;;;5100805;27;20102;-83
2022/09/24 12:44:03;;;;;;;6.00;1.30;;;14.10;99.90;;;;;;5095406;27;20047;-84
2022/09/24 12:46:34;;;;;;;10.02;1.52;;;14.00;99.90;;;;;;5115285;27;20449;-84
2022/09/24 12:49:25;;;;;;;10.80;1.80;;;14.00;99.90;;;;;;5114664;27;20057;-83
2022/09/24 12:51:54;;;;;;;8.93;1.73;;;13.90;99.90;;;;;;5114531;27;20051;-83
2022/09/24 12:54:27;;;;;;;9.52;2.30;;;13.90;99.90;;;;;;5117856;27;20118;-83
2022/09/24 12:57:14;;;;;;;10.93;3.30;;;13.90;99.90;;;;;;5114847;27;20075;-83
2022/09/24 13:00:04;;;;;;;10.00;1.90;;;13.80;99.90;;;;;;5103516;27;20146;-83
2022/09/24 13:02:44;;;;;;;15.68;4.20;;;13.80;99.90;;;;;;5134120;27;20047;-82
2022/09/24 13:05:27;;;;;;;8.38;1.67;;;13.80;99.90;;;;;;5132129;27;20047;-82
2022/09/24 13:08:23;;;;;;;9.70;2.75;;;13.70;99.90;;;;;;5136441;27;20133;-82
2022/09/24 13:11:05;;;;;;;11.15;1.92;;;13.70;99.90;;;;;;5134817;27;20046;-82
2022/09/24 13:13:39;;;;;;;15.00;2.00;;;13.70;99.90;;;;;;5116553;27;20051;-82
2022/09/24 13:16:25;;;;;;;10.23;2.13;;;13.80;99.90;;;;;;5126545;27;20050;-84
2022/09/24 13:18:57;;;;;;;7.85;1.85;;;13.70;99.90;;;;;;5131376;27;20575;-83
2022/09/24 13:21:28;;;;;;;8.80;1.40;;;13.70;99.90;;;;;;5124690;27;20133;-82
2022/09/24 13:23:55;;;;;;;8.00;1.63;;;13.70;99.90;;;;;;5103360;27;20041;-82
2022/09/24 13:26:24;;;;;;;7.05;2.03;;;13.60;99.90;;;;;;5106201;27;20039;-82
2022/09/24 13:29:00;;;;;;;8.50;2.75;;;13.60;99.90;;;;;;5106577;27;20061;-82
2022/09/24 13:31:44;;;;;;;15.98;4.75;;;13.60;99.90;;;;;;5135053;27;20054;-82
2022/09/24 13:34:10;;;;;;;11.45;4.00;;;13.60;99.90;;;;;;5109181;27;20039;-89
2022/09/24 13:36:47;;;;;;;18.65;7.32;;;13.50;99.90;;;;;;5128886;27;20395;-83
2022/09/24 13:39:21;;;;;;;17.08;7.05;;;13.50;99.90;;;;;;5117315;27;20059;-82
2022/09/24 13:42:12;;;;;;;7.28;4.05;;;13.50;99.90;;;;;;5128345;27;20049;-83
2022/09/24 13:44:47;;;;;;;11.25;4.25;;;13.50;99.90;;;;;;5126564;27;20050;-82
2022/09/24 13:47:22;;;;;;;8.50;4.63;;;13.50;99.90;;;;;;5122143;27;20111;-84
2022/09/24 13:49:51;;;;;;;5.22;2.05;;;13.40;99.90;;;;;;5132465;27;20046;-82
2022/09/24 13:52:32;;;;;;;9.80;2.30;;;13.40;99.90;;;;;;5133494;27;20488;-82
2022/09/24 13:55:05;;;;;;;6.80;2.35;;;13.40;99.90;;;;;;5109126;27;20046;-82
2022/09/24 13:57:42;;;;;;;9.93;2.40;;;13.30;99.90;;;;;;5130595;27;20038;-82
2022/09/24 14:00:16;;;;;;;3.90;1.40;;;13.30;99.90;;;;;;5112129;27;20505;-82
2022/09/24 14:02:59;;;;;;;5.78;1.30;;;13.30;99.90;;;;;;5113635;27;20038;-81
2022/09/24 14:05:25;;;;;;;7.38;1.60;;;13.20;99.90;;;;;;5108577;27;20134;-82
2022/09/24 14:08:03;;;;;;;12.48;2.20;;;13.20;99.90;;;;;;5104708;27;20061;-81
2022/09/24 14:10:29;;;;;;;10.00;2.38;;;13.20;99.90;;;;;;5108059;27;20046;-81
2022/09/24 14:13:09;;;;;;;11.23;2.78;;;13.20;99.90;;;;;;5131857;27;20412;-82
2022/09/24 14:15:35;;;;;;;18.20;4.90;;;13.20;99.90;;;;;;5105725;27;20162;-82
2022/09/24 14:18:01;;;;;;;9.40;2.05;;;13.10;99.90;;;;;;5124174;27;20075;-81
2022/09/24 14:20:30;;;;;;;6.80;2.83;;;13.20;99.90;;;;;;5110200;27;20085;-82
2022/09/24 14:22:55;;;;;;;16.23;5.88;;;13.20;99.90;;;;;;5131182;27;20095;-82
2022/09/24 14:25:28;;;;;;;7.65;2.13;;;13.20;99.90;;;;;;5130090;27;20520;-82
2022/09/24 14:27:56;;;;;;;6.50;1.90;;;13.20;99.90;;;;;;5103527;27;20039;-81
2022/09/24 14:30:27;;;;;;;13.10;4.60;;;13.10;99.90;;;;;;5094173;27;20054;-81
2022/09/24 14:33:05;;;;;;;7.93;1.52;;;13.10;99.90;;;;;;5125634;27;20105;-81
2022/09/24 14:35:34;;;;;;;9.70;2.03;;;13.10;99.90;;;;;;5122606;27;20117;-82
2022/09/24 14:38:05;;;;;;;15.15;5.40;;;13.00;99.90;;;;;;5102807;27;20395;-82
2022/09/24 14:40:41;;;;;;;5.28;1.58;;;13.00;99.90;;;;;;5128127;27;20132;-81
2022/09/24 14:43:16;;;;;;;7.20;1.90;;;12.90;99.90;;;;;;5133848;27;20039;-82
2022/09/24 14:45:42;;;;;;;10.48;1.90;;;12.90;99.90;;;;;;5098821;27;20046;-82
2022/09/24 14:48:20;;;;;;;7.93;1.55;;;12.90;99.90;;;;;;5095100;27;20488;-82
2022/09/24 14:50:46;;;;;;;6.78;1.73;;;12.90;99.90;;;;;;5114847;27;20444;-82
2022/09/24 14:53:23;;;;;;;11.00;3.10;;;12.90;99.90;;;;;;5091797;27;20095;-82
2022/09/24 14:55:50;;;;;;;8.15;3.13;;;13.00;99.90;;;;;;5098766;27;20050;-82
2022/09/24 14:58:27;;;;;;;6.95;2.63;;;13.10;99.90;;;;;;5118840;27;21301;-83
2022/09/24 15:01:12;;;;;;;12.50;4.28;;;13.10;99.90;;;;;;5114746;27;20070;-82
2022/09/24 15:03:42;;;;;;;11.60;3.80;;;13.20;99.90;;;;;;5113258;27;20135;-82
2022/09/24 15:06:23;;;;;;;11.35;4.70;;;13.30;99.90;;;;;;5109136;27;20102;-81
2022/09/24 15:09:01;;;;;;;9.00;2.50;;;13.40;99.90;;;;;;5108413;27;20051;-82
2022/09/24 15:11:33;;;;;;;15.40;3.70;;;13.50;99.90;;;;;;5119450;27;20046;-81
2022/09/24 15:14:15;;;;;;;12.52;2.53;;;13.60;99.90;;;;;;5124262;27;20066;-81
2022/09/24 15:16:42;;;;;;;10.35;3.08;;;13.60;99.90;;;;;;5111442;27;20919;-83
2022/09/24 15:19:19;;;;;;;14.02;4.28;;;13.60;99.90;;;;;;5092952;27;20054;-82
2022/09/24 15:21:48;;;;;;;10.82;3.25;;;13.60;99.90;;;;;;5101407;27;20055;-82
2022/09/24 15:24:15;;;;;;;12.30;2.75;;;13.60;99.90;;;;;;5112339;27;20050;-82
2022/09/24 15:26:45;;;;;;;7.70;2.22;;;13.70;99.90;;;;;;5078162;27;20061;-82
2022/09/24 15:29:19;;;;;;;6.30;1.73;;;13.60;99.90;;;;;;5089993;27;21365;-81
2022/09/24 15:31:49;;;;;;;10.68;2.85;;;13.50;99.90;;;;;;5092633;27;20042;-82
2022/09/24 15:34:15;;;;;;;9.43;1.63;;;13.40;99.90;;;;;;5106527;27;20612;-81
2022/09/24 15:36:40;;;;;;;9.50;2.42;;;13.40;99.90;;;;;;5107869;27;20050;-82
2022/09/24 15:39:06;;;;;;;8.02;2.10;;;13.30;99.90;;;;;;5075716;27;20050;-82
2022/09/24 15:41:32;;;;;;;10.00;2.20;;;13.30;99.90;;;;;;5077249;27;20075;-82
2022/09/24 15:43:58;;;;;;;11.70;3.05;;;13.20;99.90;;;;;;5096864;27;20046;-81
2022/09/24 15:46:25;;;;;;;9.55;2.10;;;13.10;99.90;;;;;;5097639;27;20391;-83
2022/09/24 15:48:51;;;;;;;8.55;2.25;;;13.00;99.90;;;;;;5089321;27;20732;-82
2022/09/24 15:51:20;;;;;;;10.10;3.38;;;13.00;99.90;;;;;;5086894;27;20051;-84
2022/09/24 15:53:47;;;;;;;14.80;3.40;;;13.00;99.90;;;;;;5105321;27;20341;-83
2022/09/24 15:56:14;;;;;;;8.50;2.15;;;13.00;99.90;;;;;;5090933;27;20054;-83
2022/09/24 15:58:39;;;;;;;19.15;4.57;;;13.00;99.90;;;;;;5106952;27;20081;-82
2022/09/24 16:01:05;;;;;;;11.95;2.40;;;13.00;99.90;;;;;;5091849;27;20165;-82
2022/09/24 16:03:31;;;;;;;8.65;1.70;;;13.10;99.90;;;;;;5090879;27;20047;-82
2022/09/24 16:05:58;;;;;;;7.70;2.28;;;13.10;99.90;;;;;;5106901;27;20047;-82
2022/09/24 16:08:24;;;;;;;14.77;3.28;;;13.10;99.90;;;;;;5109991;27;20634;-81
2022/09/24 16:10:51;;;;;;;7.60;1.73;;;13.10;99.90;;;;;;5108674;27;20112;-83
2022/09/24 16:13:21;;;;;;;8.57;2.00;;;13.00;99.90;;;;;;5128805;27;20126;-82
2022/09/24 16:15:47;;;;;;;15.57;3.47;;;13.00;99.90;;;;;;5106487;27;20115;-79
2022/09/24 16:18:16;;;;;;;7.32;1.58;;;12.90;99.90;;;;;;5121691;27;20073;-80
2022/09/24 16:20:44;;;;;;;8.20;1.70;;;12.90;99.90;;;;;;5094254;27;20564;-80
2022/09/24 16:23:17;;;;;;;8.05;1.73;;;12.90;99.90;;;;;;5100123;27;20059;-81
2022/09/24 16:25:57;;;;;;;6.05;2.08;;;12.90;99.90;;;;;;5123156;27;20038;-80
2022/09/24 16:28:23;;;;;;;12.65;1.73;;;12.90;99.90;;;;;;5132195;27;20043;-80
2022/09/24 16:30:52;;;;;;;6.78;3.03;;;12.90;99.90;;;;;;5102589;27;20055;-80
2022/09/24 16:33:17;;;;;;;11.02;3.08;;;12.90;99.90;;;;;;5128043;27;20043;-82
2022/09/24 16:35:43;;;;;;;6.22;2.45;;;12.90;99.90;;;;;;5111937;27;20541;-81
2022/09/24 16:38:09;;;;;;;8.98;3.10;;;13.00;99.90;;;;;;5110629;27;20043;-81
2022/09/24 16:40:35;;;;;;;9.38;3.63;;;13.00;99.90;;;;;;5095506;27;20043;-81
2022/09/24 16:43:00;;;;;;;14.20;5.22;;;13.00;99.90;;;;;;5093818;27;20047;-80
2022/09/24 16:45:26;;;;;;;9.82;1.85;;;13.00;99.90;;;;;;5119965;27;20043;-80
2022/09/24 16:47:52;;;;;;;10.23;2.40;;;13.00;99.90;;;;;;5124142;27;20626;-81
2022/09/24 16:50:19;;;;;;;10.57;1.58;;;13.00;99.90;;;;;;5129543;27;20047;-80
2022/09/24 16:52:47;;;;;;;8.68;3.17;;;13.00;99.90;;;;;;5107149;27;20126;-83
2022/09/24 16:55:12;;;;;;;11.75;3.55;;;13.00;99.90;;;;;;5124503;27;20489;-81
2022/09/24 16:57:38;;;;;;;14.93;5.88;;;13.00;99.90;;;;;;5099146;27;20086;-81
2022/09/24 17:00:07;;;;;;;12.70;2.92;;;12.90;99.90;;;;;;5090649;27;20043;-82
2022/09/24 17:02:33;;;;;;;20.67;9.30;;;12.90;99.90;;;;;;5126577;27;20059;-83
2022/09/24 17:04:59;;;;;;;20.33;11.50;;;12.90;99.90;;;;;;5098868;27;20047;-81
2022/09/24 17:07:27;;;;;;;14.93;4.63;;;12.90;99.90;;;;;;5100809;27;20109;-81
2022/09/24 17:12:42;;;;;;;21.30;9.45;;;12.90;99.90;;;;;;5103327;27;20410;-82
2022/09/24 17:15:08;;;;;;;17.77;9.77;;;12.80;99.90;;;;;;5116864;27;20051;-82
2022/09/24 17:17:34;;;;;;;24.38;11.63;;;12.70;99.90;;;;;;5125051;27;20042;-82
2022/09/24 17:20:00;;;;;;;18.73;8.32;;;12.80;99.90;;;;;;5098083;27;20264;-82
2022/09/24 17:22:26;;;;;;;22.80;11.73;;;12.80;99.90;;;;;;5105497;27;20049;-82
2022/09/24 17:24:51;;;;;;;16.25;7.65;;;12.80;99.90;;;;;;5135372;27;20042;-82
2022/09/24 17:27:17;;;;;;;33.17;21.00;;;12.80;99.90;;;;;;5102538;27;20084;-82
2022/09/24 17:29:43;;;;;;;34.80;19.70;;;12.80;99.90;;;;;;5094023;27;20075;-83
2022/09/24 17:32:08;;;;;;;27.73;17.80;;;12.80;99.90;;;;;;5111633;27;20051;-82
2022/09/24 17:34:34;;;;;;;15.00;5.60;;;12.80;99.90;;;;;;5117272;27;20050;-82
2022/09/24 17:37:00;;;;;;;20.02;5.70;;;12.80;99.90;;;;;;5132311;27;20585;-82
2022/09/24 17:39:26;;;;;;;10.43;2.28;;;12.80;99.90;;;;;;5114541;27;20045;-82
2022/09/24 17:41:52;;;;;;;17.02;3.03;;;12.80;99.90;;;;;;5108975;27;20051;-82
2022/09/24 17:44:18;;;;;;;9.75;2.08;;;12.70;99.90;;;;;;5116390;27;20099;-83
2022/09/24 17:46:44;;;;;;;13.10;2.85;;;12.70;99.90;;;;;;5091895;27;20086;-84
2022/09/24 17:49:10;;;;;;;12.13;5.55;;;12.70;99.90;;;;;;5113241;27;20114;-83
2022/09/24 17:51:36;;;;;;;28.73;19.95;;;12.70;99.90;;;;;;5090270;27;20055;-84
2022/09/24 17:54:08;;;;;;;20.35;14.40;;;12.70;99.90;;;;;;5108127;27;20098;-83
2022/09/24 17:56:37;;;;;;;71.20;46.28;;;12.70;99.90;;;;;;5094895;27;20050;-83
2022/09/24 17:59:05;;;;;;;19.58;8.48;;;12.70;99.90;;;;;;5108823;27;20035;-81
2022/09/24 18:01:34;;;;;;;19.15;13.52;;;12.70;99.90;;;;;;5080287;27;20046;-80
2022/09/24 18:04:01;;;;;;;25.52;17.42;;;12.70;99.90;;;;;;5112225;27;20057;-82
2022/09/24 18:06:29;;;;;;;24.65;15.40;;;12.70;99.90;;;;;;5094316;27;20124;-82
2022/09/24 18:08:55;;;;;;;16.55;10.35;;;12.70;99.90;;;;;;5111535;27;20050;-82
2022/09/24 18:11:28;;;;;;;18.25;9.18;;;12.70;99.90;;;;;;5092917;27;20045;-82
2022/09/24 18:13:55;;;;;;;11.77;4.25;;;12.70;99.90;;;;;;5104755;27;20057;-82
2022/09/24 18:16:24;;;;;;;10.20;3.70;;;12.70;99.90;;;;;;5106291;27;20038;-83
2022/09/24 18:18:50;;;;;;;20.42;5.05;;;12.70;99.90;;;;;;5105258;27;20051;-81
2022/09/24 18:21:22;;;;;;;11.65;5.35;;;12.70;99.90;;;;;;5109947;27;21131;-83
2022/09/24 18:23:55;;;;;;;19.67;5.90;;;12.70;99.90;;;;;;5108843;27;20046;-83
2022/09/24 18:26:23;;;;;;;15.05;7.32;;;12.60;99.90;;;;;;5107803;27;20709;-82
2022/09/24 18:28:53;;;;;;;17.70;11.93;;;12.60;99.90;;;;;;5107504;27;20046;-83
2022/09/24 18:31:21;;;;;;;14.60;7.53;;;12.60;99.90;;;;;;5112590;27;20043;-82
2022/09/24 18:33:51;;;;;;;17.70;7.30;;;12.60;99.90;;;;;;5108178;27;21586;-86
2022/09/24 18:36:20;;;;;;;17.00;6.18;;;12.60;99.90;;;;;;5086830;27;20054;-83
2022/09/24 18:38:46;;;;;;;15.80;6.70;;;12.60;99.90;;;;;;5095612;27;20053;-82
2022/09/24 18:41:21;;;;;;;12.25;6.85;;;12.60;99.90;;;;;;5090078;27;20047;-82
2022/09/24 18:43:48;;;;;;;15.63;4.85;;;12.60;99.90;;;;;;5111107;27;20154;-83
2022/09/24 18:46:15;;;;;;;11.50;2.72;;;12.50;99.90;;;;;;5092822;27;20081;-82
2022/09/24 18:48:43;;;;;;;11.02;3.20;;;12.50;99.90;;;;;;5094054;27;20046;-82
2022/09/24 18:51:21;;;;;;;10.27;2.63;;;12.50;99.90;;;;;;5096984;27;20609;-81
2022/09/24 18:53:57;;;;;;;13.73;2.22;;;12.40;99.90;;;;;;5099615;27;20145;-80
2022/09/24 18:56:26;;;;;;;9.13;2.38;;;12.40;99.90;;;;;;5113600;27;20039;-82
2022/09/24 18:58:58;;;;;;;11.95;1.73;;;12.30;99.90;;;;;;5122617;27;20102;-81
2022/09/24 19:01:24;;;;;;;6.80;2.03;;;12.30;99.90;;;;;;5096525;27;20046;-82
2022/09/24 19:03:50;;;;;;;10.93;2.53;;;12.30;99.90;;;;;;5113222;27;20466;-85
2022/09/24 19:06:16;;;;;;;8.13;3.13;;;12.20;99.90;;;;;;5075264;27;20050;-82
2022/09/24 19:08:42;;;;;;;14.70;4.35;;;12.10;99.90;;;;;;5088366;27;20076;-84
2022/09/24 19:11:11;;;;;;;15.60;5.75;;;12.10;99.90;;;;;;5101853;27;20046;-82
2022/09/24 19:13:39;;;;;;;27.35;6.68;;;12.00;99.90;;;;;;5095558;27;20539;-82
2022/09/24 19:16:07;;;;;;;10.48;4.05;;;12.00;99.90;;;;;;5129938;27;20082;-82
2022/09/24 19:18:34;;;;;;;22.48;6.38;;;12.00;99.90;;;;;;5112280;27;20073;-81
2022/09/24 19:21:00;;;;;;;31.35;11.07;;;12.00;99.90;;;;;;5120953;27;20051;-82
2022/09/24 19:23:26;;;;;;;13.25;3.20;;;12.00;99.90;;;;;;5108611;27;20096;-81
2022/09/24 19:25:58;;;;;;;48.50;17.92;;;11.90;99.90;;;;;;5132997;27;20495;-83
2022/09/24 19:28:23;;;;;;;13.77;4.80;;;11.90;99.90;;;;;;5115116;27;20084;-81
2022/09/24 19:30:51;;;;;;;16.67;3.95;;;11.80;99.90;;;;;;5083216;27;20047;-80
2022/09/24 19:33:17;;;;;;;11.27;5.28;;;11.70;99.90;;;;;;5085729;27;20049;-79
2022/09/24 19:35:56;;;;;;;9.93;3.10;;;11.60;99.90;;;;;;5125608;27;20458;-80
2022/09/24 19:38:27;;;;;;;7.32;1.67;;;11.60;99.90;;;;;;5103637;27;20057;-80
2022/09/24 19:41:05;;;;;;;15.20;2.40;;;11.40;99.90;;;;;;5130511;27;20054;-82
2022/09/24 19:43:32;;;;;;;6.57;2.20;;;11.30;99.90;;;;;;5129198;27;20445;-81
2022/09/24 19:46:04;;;;;;;10.75;2.17;;;11.20;99.90;;;;;;5103315;27;20046;-81
2022/09/24 19:48:31;;;;;;;8.05;2.67;;;11.10;99.90;;;;;;5129138;27;20484;-81
2022/09/24 19:51:01;;;;;;;14.02;5.88;;;11.20;99.90;;;;;;5092276;27;20544;-85
2022/09/24 19:53:30;;;;;;;12.85;6.32;;;11.00;99.90;;;;;;5101228;27;20046;-81
2022/09/24 19:55:58;;;;;;;8.02;3.97;;;10.90;99.90;;;;;;5111481;27;20553;-84
2022/09/24 19:58:24;;;;;;;12.48;6.45;;;10.80;99.90;;;;;;5091210;27;20574;-82
2022/09/24 20:00:53;;;;;;;14.20;2.97;;;10.70;99.90;;;;;;5109326;27;20122;-81
2022/09/24 20:03:19;;;;;;;10.05;2.35;;;10.60;99.90;;;;;;5121606;27;20066;-81
2022/09/24 20:05:45;;;;;;;12.52;2.45;;;10.50;99.90;;;;;;5097593;27;21097;-81
2022/09/24 20:08:13;;;;;;;7.55;1.90;;;10.60;99.90;;;;;;5092784;27;20046;-80
2022/09/24 20:10:43;;;;;;;12.35;2.08;;;10.40;99.90;;;;;;5102709;27;20102;-80
2022/09/24 20:13:11;;;;;;;12.07;2.38;;;10.40;99.90;;;;;;5099883;28;20055;-82
2022/09/24 20:15:39;;;;;;;9.23;2.60;;;10.30;99.90;;;;;;5090357;28;20636;-82
2022/09/24 20:18:06;;;;;;;7.20;2.58;;;10.30;99.90;;;;;;5109558;28;20050;-81
2022/09/24 20:20:35;;;;;;;9.18;2.30;;;10.20;99.90;;;;;;5108453;28;20488;-81
2022/09/24 20:23:01;;;;;;;12.30;2.42;;;10.20;99.90;;;;;;5109516;28;20035;-83
2022/09/24 20:28:15;;;;;;;11.00;2.40;;;10.10;99.90;;;;;;5117678;28;20062;-81
2022/09/24 20:30:44;;;;;;;6.30;2.40;;;10.00;99.90;;;;;;5091757;28;20048;-82
2022/09/24 20:33:11;;;;;;;9.98;2.72;;;9.90;99.90;;;;;;5108012;28;20122;-83
2022/09/24 20:35:38;;;;;;;11.48;2.83;;;9.80;99.90;;;;;;5108785;28;20117;-81
2022/09/24 20:38:05;;;;;;;13.65;3.28;;;9.70;99.90;;;;;;5095460;28;20096;-82
2022/09/24 20:40:33;;;;;;;11.52;2.95;;;9.60;99.90;;;;;;5108430;28;20055;-81
2022/09/24 20:42:58;;;;;;;15.10;3.40;;;9.50;99.90;;;;;;5089312;28;20035;-81
2022/09/24 20:45:24;;;;;;;12.35;2.38;;;9.50;99.90;;;;;;5070512;28;20645;-81
2022/09/24 20:47:51;;;;;;;11.35;3.40;;;9.40;99.90;;;;;;5085421;28;20417;-82
2022/09/24 20:50:17;;;;;;;14.30;3.67;;;9.30;99.90;;;;;;5100420;28;20059;-81
2022/09/24 20:52:46;;;;;;;16.55;4.00;;;9.20;99.90;;;;;;5079799;28;20039;-83
2022/09/24 20:55:15;;;;;;;12.23;3.55;;;9.20;99.90;;;;;;5091117;28;20066;-83
2022/09/24 20:57:43;;;;;;;8.60;3.72;;;9.20;99.90;;;;;;5092184;28;20122;-82
2022/09/24 21:00:13;;;;;;;14.45;4.90;;;9.10;99.90;;;;;;5069048;28;20465;-82
2022/09/24 21:02:39;;;;;;;11.10;6.97;;;9.10;99.90;;;;;;5090651;28;20044;-80
2022/09/24 21:05:07;;;;;;;13.43;10.30;;;9.00;99.90;;;;;;5105588;28;20047;-83
2022/09/24 21:07:34;;;;;;;16.67;9.10;;;9.00;99.90;;;;;;5107526;28;20400;-82
2022/09/24 21:10:00;;;;;;;12.88;8.40;;;9.00;99.90;;;;;;5109851;28;20108;-83
2022/09/24 21:12:25;;;;;;;14.90;8.10;;;9.00;99.90;;;;;;5109180;27;20207;-82
2022/09/24 21:14:51;;;;;;;13.38;7.10;;;8.90;99.90;;;;;;5101626;27;20069;-83
2022/09/24 21:17:17;;;;;;;12.90;7.20;;;8.80;99.90;;;;;;5116906;27;20101;-84
2022/09/24 21:19:43;;;;;;;13.13;6.18;;;8.70;99.90;;;;;;5086083;28;20047;-83
2022/09/24 21:22:08;;;;;;;11.45;5.70;;;8.70;99.90;;;;;;5116814;27;20069;-84
2022/09/24 21:24:34;;;;;;;16.38;5.93;;;8.50;99.90;;;;;;5126342;27;20355;-82
2022/09/24 21:27:00;;;;;;;12.57;6.07;;;8.50;99.90;;;;;;5103939;27;20039;-83
2022/09/24 21:29:25;;;;;;;14.13;6.20;;;8.50;99.90;;;;;;5090032;27;20104;-83
2022/09/24 21:31:51;;;;;;;12.40;4.97;;;8.50;99.90;;;;;;5130020;27;20066;-82
2022/09/24 21:34:19;;;;;;;20.52;5.22;;;8.40;99.90;;;;;;5105085;27;20085;-83